Time;durP1;ratioP1;P1;durP2;ratioP2;P2;SDS_P1;SDS_P2;PMS_P1;PMS_P2;Temp;Humidity;BMP_temperature;BMP_pressure;BME280_temperature;BME280_humidity;BME280_pressure;Samples;Min_cycle;Max_cycle;Signal;HPM_P1;HPM_P2
2022/07/20 00:00:42;;;;;;;7.25;3.55;;;26.20;55.30;;;;;;3061537;19;20508;-70
2022/07/20 00:01:46;;;;;;;8.05;3.45;;;26.30;55.50;;;;;;3061249;19;20025;-71
2022/07/20 00:02:47;;;;;;;4.88;3.38;;;26.20;55.60;;;;;;3060535;19;20353;-70
2022/07/20 00:03:51;;;;;;;6.32;3.00;;;26.30;55.80;;;;;;3062230;19;20018;-70
2022/07/20 00:04:52;;;;;;;7.85;3.30;;;26.30;56.00;;;;;;3059503;19;20493;-70
2022/07/20 00:05:57;;;;;;;5.68;3.28;;;26.20;56.00;;;;;;3060987;19;20069;-70
2022/07/20 00:06:59;;;;;;;6.53;3.40;;;26.30;56.20;;;;;;3060386;19;20101;-70
2022/07/20 00:08:03;;;;;;;6.10;3.22;;;26.30;56.10;;;;;;3060415;19;20018;-71
2022/07/20 00:11:37;;;;;;;7.28;3.45;;;26.00;55.70;;;;;;3059749;19;20010;-70
2022/07/20 00:12:43;;;;;;;7.13;3.13;;;26.20;56.00;;;;;;3060963;19;20026;-71
2022/07/20 00:13:46;;;;;;;7.00;3.40;;;26.00;56.20;;;;;;3060192;19;20011;-70
2022/07/20 00:14:50;;;;;;;5.85;3.50;;;26.10;56.20;;;;;;3061188;19;20035;-70
2022/07/20 00:15:51;;;;;;;5.63;3.47;;;26.10;56.00;;;;;;3060454;19;20471;-70
2022/07/20 00:16:55;;;;;;;6.50;3.33;;;26.10;56.20;;;;;;3061773;19;20010;-70
2022/07/20 00:17:56;;;;;;;6.30;3.67;;;26.00;56.30;;;;;;3059923;19;20010;-70
2022/07/20 00:19:01;;;;;;;6.35;3.40;;;25.80;56.30;;;;;;3059578;19;20028;-70
2022/07/20 00:20:02;;;;;;;5.13;3.42;;;25.90;56.50;;;;;;3061134;19;20554;-71
2022/07/20 00:21:06;;;;;;;;;;;26.00;56.90;;;;;;3061211;19;20003;-70
2022/07/20 00:22:10;;;;;;;5.47;3.35;;;26.00;56.80;;;;;;3060576;19;19929;-70
2022/07/20 00:23:11;;;;;;;5.75;3.58;;;25.80;56.80;;;;;;3061051;19;20015;-70
2022/07/20 00:24:15;;;;;;;5.82;3.40;;;25.80;56.70;;;;;;3060149;19;20460;-70
2022/07/20 00:25:16;;;;;;;10.15;3.42;;;25.90;56.80;;;;;;3059261;19;20031;-70
2022/07/20 00:26:20;;;;;;;6.53;3.65;;;25.90;57.00;;;;;;3059882;19;20015;-70
2022/07/20 00:27:22;;;;;;;5.47;3.38;;;25.80;57.00;;;;;;3059886;19;20452;-70
2022/07/20 00:28:28;;;;;;;6.30;3.45;;;25.90;57.00;;;;;;3061770;19;20015;-70
2022/07/20 00:29:30;;;;;;;5.97;3.40;;;25.80;57.00;;;;;;3059163;19;20017;-71
2022/07/20 00:30:33;;;;;;;6.65;3.45;;;25.90;56.50;;;;;;3060243;19;20554;-70
2022/07/20 00:31:35;;;;;;;7.28;3.30;;;25.70;56.60;;;;;;3060115;19;20092;-70
2022/07/20 00:32:39;;;;;;;7.85;3.40;;;25.90;56.90;;;;;;3060358;19;20003;-70
2022/07/20 00:33:41;;;;;;;8.30;3.58;;;25.90;57.20;;;;;;3061274;19;20109;-70
2022/07/20 00:34:45;;;;;;;6.68;3.30;;;25.50;56.90;;;;;;3060627;19;20038;-70
2022/07/20 00:35:46;;;;;;;6.22;3.33;;;25.90;57.50;;;;;;3061404;19;20029;-70
2022/07/20 00:36:50;;;;;;;4.68;3.40;;;25.60;57.60;;;;;;3058360;19;20010;-70
2022/07/20 00:37:52;;;;;;;6.78;3.65;;;25.60;57.70;;;;;;3058794;19;20021;-70
2022/07/20 00:38:56;;;;;;;8.70;3.40;;;25.70;57.30;;;;;;3061128;19;20029;-70
2022/07/20 00:39:57;;;;;;;8.30;2.95;;;25.60;57.40;;;;;;3059865;19;20011;-70
2022/07/20 00:41:01;;;;;;;8.02;3.20;;;25.60;57.60;;;;;;3061557;19;20022;-70
2022/07/20 00:42:02;;;;;;;9.13;3.50;;;25.50;57.70;;;;;;3060088;19;20098;-71
2022/07/20 00:43:06;;;;;;;;;;;25.50;58.00;;;;;;3060797;19;20015;-70
2022/07/20 00:44:11;;;;;;;6.30;3.22;;;25.40;58.40;;;;;;3060930;19;19934;-70
2022/07/20 00:45:15;;;;;;;5.00;3.25;;;25.40;58.00;;;;;;3059503;19;20038;-70
2022/07/20 00:46:16;;;;;;;7.85;3.67;;;25.50;57.90;;;;;;3060091;19;20021;-70
2022/07/20 00:47:20;;;;;;;4.07;3.20;;;25.30;57.80;;;;;;3060107;19;20014;-70
2022/07/20 00:48:21;;;;;;;6.60;3.20;;;25.40;57.90;;;;;;3059857;19;20021;-70
2022/07/20 00:49:25;;;;;;;8.43;3.70;;;25.50;58.00;;;;;;3061689;19;20090;-70
2022/07/20 00:50:27;;;;;;;5.03;3.03;;;25.30;57.80;;;;;;3059347;19;20015;-70
2022/07/20 00:51:32;;;;;;;4.68;3.28;;;25.40;58.10;;;;;;3060192;19;20455;-70
2022/07/20 00:52:33;;;;;;;6.13;3.35;;;25.10;58.10;;;;;;3061090;19;20011;-70
2022/07/20 00:53:37;;;;;;;6.60;3.38;;;25.50;58.50;;;;;;3060390;19;19999;-70
2022/07/20 00:54:42;;;;;;;9.43;3.63;;;25.40;58.60;;;;;;3059714;19;20009;-70
2022/07/20 00:55:43;;;;;;;8.43;3.55;;;25.30;58.60;;;;;;3059966;19;20075;-70
2022/07/20 00:56:48;;;;;;;5.72;3.08;;;25.30;58.80;;;;;;3057929;19;20019;-70
2022/07/20 00:57:49;;;;;;;7.05;3.50;;;25.10;59.00;;;;;;3060427;19;20078;-70
2022/07/20 00:58:53;;;;;;;5.57;3.70;;;25.20;59.10;;;;;;3060772;19;20018;-70
2022/07/20 00:59:58;;;;;;;8.48;3.63;;;25.10;59.00;;;;;;3057419;19;20010;-71
2022/07/20 01:01:02;;;;;;;6.45;3.47;;;25.20;59.70;;;;;;3060996;19;20029;-70
2022/07/20 01:02:06;;;;;;;6.68;3.58;;;25.30;59.80;;;;;;3061233;19;20393;-70
2022/07/20 01:03:07;;;;;;;6.40;3.42;;;25.00;59.60;;;;;;3059511;19;20018;-70
2022/07/20 01:04:11;;;;;;;6.32;3.60;;;25.10;59.40;;;;;;3060019;19;20013;-70
2022/07/20 01:05:14;;;;;;;8.35;3.50;;;25.00;59.30;;;;;;3059468;19;20023;-70
2022/07/20 01:06:18;;;;;;;6.10;3.50;;;25.00;59.40;;;;;;3059570;19;20479;-70
2022/07/20 01:07:19;;;;;;;4.72;3.33;;;25.00;59.60;;;;;;3058766;19;20099;-70
2022/07/20 01:08:23;;;;;;;7.78;3.28;;;25.00;59.80;;;;;;3059984;19;20044;-70
2022/07/20 01:09:25;;;;;;;7.20;3.35;;;25.00;59.50;;;;;;3060654;19;20018;-70
2022/07/20 01:10:29;;;;;;;5.53;3.22;;;24.90;59.60;;;;;;3060269;19;20060;-70
2022/07/20 01:11:31;;;;;;;4.78;3.53;;;24.90;59.90;;;;;;3060444;19;20019;-70
2022/07/20 01:12:35;;;;;;;10.43;3.63;;;24.90;60.10;;;;;;3059719;19;20070;-70
2022/07/20 01:13:37;;;;;;;5.88;3.40;;;24.80;60.10;;;;;;3059364;19;20087;-70
2022/07/20 01:14:41;;;;;;;8.70;3.78;;;24.80;60.00;;;;;;3060237;19;20006;-70
2022/07/20 01:15:45;;;;;;;6.20;3.40;;;24.80;60.20;;;;;;3060724;19;20493;-70
2022/07/20 01:16:49;;;;;;;6.38;3.55;;;24.80;59.70;;;;;;3058763;19;20027;-71
2022/07/20 01:17:50;;;;;;;5.93;3.28;;;24.70;59.20;;;;;;3059593;19;20006;-70
2022/07/20 01:18:54;;;;;;;6.97;3.63;;;24.90;59.60;;;;;;3057967;19;19998;-70
2022/07/20 01:19:56;;;;;;;5.18;3.60;;;24.70;59.90;;;;;;3058977;19;20003;-70
2022/07/20 01:21:04;;;;;;;5.85;3.65;;;24.90;60.00;;;;;;3059375;19;20372;-70
2022/07/20 01:22:05;;;;;;;10.20;3.67;;;24.80;60.10;;;;;;3059165;19;20014;-71
2022/07/20 01:23:09;;;;;;;8.35;3.40;;;24.80;60.00;;;;;;3060248;19;20006;-70
2022/07/20 01:24:12;;;;;;;6.25;3.47;;;24.70;59.80;;;;;;3060468;19;20015;-70
2022/07/20 01:25:17;;;;;;;7.50;3.50;;;24.70;59.90;;;;;;3059274;19;20075;-70
2022/07/20 01:26:19;;;;;;;7.70;3.42;;;24.80;59.90;;;;;;3059955;19;20031;-70
2022/07/20 01:27:23;;;;;;;7.53;3.20;;;24.70;60.00;;;;;;3059303;19;20014;-70
2022/07/20 01:28:26;;;;;;;6.90;3.47;;;24.80;59.90;;;;;;3060440;19;20019;-70
2022/07/20 01:29:30;;;;;;;6.20;3.92;;;24.50;59.70;;;;;;3060743;19;20078;-70
2022/07/20 01:30:31;;;;;;;5.97;3.70;;;24.60;59.50;;;;;;3059560;19;20486;-70
2022/07/20 01:31:35;;;;;;;6.75;3.40;;;24.60;59.70;;;;;;3060918;19;20585;-70
2022/07/20 01:32:37;;;;;;;6.22;3.47;;;24.50;59.80;;;;;;3059462;19;20013;-70
2022/07/20 01:33:41;;;;;;;8.65;3.40;;;24.60;59.80;;;;;;3061028;19;20014;-70
2022/07/20 01:34:42;;;;;;;7.10;3.30;;;24.60;59.70;;;;;;3060297;19;20018;-70
2022/07/20 01:35:46;;;;;;;5.60;3.67;;;24.50;59.60;;;;;;3060691;19;20354;-70
2022/07/20 01:36:53;;;;;;;6.38;3.60;;;24.60;59.70;;;;;;3059228;19;20011;-70
2022/07/20 01:37:54;;;;;;;6.57;3.45;;;24.50;59.80;;;;;;3060081;19;20369;-70
2022/07/20 01:38:58;;;;;;;4.55;3.72;;;24.60;60.00;;;;;;3058680;19;20054;-71
2022/07/20 01:39:59;;;;;;;8.88;3.63;;;24.50;60.00;;;;;;3060566;19;20416;-70
2022/07/20 01:41:03;;;;;;;4.30;3.60;;;24.50;59.90;;;;;;3059146;19;20014;-70
2022/07/20 01:42:04;;;;;;;6.43;3.30;;;24.70;59.90;;;;;;3061015;19;20483;-70
2022/07/20 01:43:08;;;;;;;5.45;3.30;;;24.50;60.00;;;;;;3059966;19;20018;-70
2022/07/20 01:44:09;;;;;;;6.18;3.45;;;24.60;60.10;;;;;;3060997;19;20015;-70
2022/07/20 01:45:13;;;;;;;6.47;3.55;;;24.50;60.30;;;;;;3059194;19;20513;-69
2022/07/20 01:46:15;;;;;;;9.73;3.30;;;24.50;60.30;;;;;;3059522;19;20006;-70
2022/07/20 01:47:19;;;;;;;4.88;3.60;;;24.60;60.30;;;;;;3056234;19;20018;-70
2022/07/20 01:48:20;;;;;;;6.53;3.33;;;24.50;60.40;;;;;;3060052;19;20483;-70
2022/07/20 01:49:27;;;;;;;4.47;3.17;;;24.40;60.60;;;;;;3059877;19;20010;-70
2022/07/20 01:50:28;;;;;;;5.55;3.28;;;24.30;60.20;;;;;;3059383;19;20003;-70
2022/07/20 01:51:32;;;;;;;8.93;3.42;;;24.30;60.20;;;;;;3059611;19;20025;-70
2022/07/20 01:52:36;;;;;;;8.82;3.42;;;24.30;60.50;;;;;;3059271;19;20018;-70
2022/07/20 01:53:40;;;;;;;6.97;3.60;;;24.30;60.80;;;;;;3059956;19;20035;-70
2022/07/20 01:54:41;;;;;;;5.68;3.47;;;24.10;60.70;;;;;;3059364;19;20042;-70
2022/07/20 01:55:45;;;;;;;7.78;3.58;;;24.40;60.80;;;;;;3060101;19;20609;-70
2022/07/20 01:56:46;;;;;;;5.45;3.58;;;24.20;60.60;;;;;;3058277;19;20006;-69
2022/07/20 01:57:50;;;;;;;5.90;3.17;;;24.20;60.50;;;;;;3059866;19;20034;-70
2022/07/20 01:58:52;;;;;;;6.85;3.40;;;24.30;60.30;;;;;;3058954;19;20006;-70
2022/07/20 01:59:55;;;;;;;6.65;3.70;;;24.10;60.20;;;;;;3058655;19;20023;-70
2022/07/20 02:00:57;;;;;;;7.53;3.28;;;24.30;60.20;;;;;;3059100;19;20025;-70
2022/07/20 02:02:01;;;;;;;8.13;3.65;;;24.30;60.20;;;;;;3059349;19;20007;-70
2022/07/20 02:03:03;;;;;;;7.18;3.65;;;24.30;60.40;;;;;;3059261;19;20015;-70
2022/07/20 02:04:08;;;;;;;6.75;3.72;;;24.20;60.20;;;;;;3059510;19;20018;-70
2022/07/20 02:05:09;;;;;;;5.20;3.30;;;24.30;60.40;;;;;;3058724;19;20378;-70
2022/07/20 02:06:14;;;;;;;9.10;4.10;;;24.10;60.30;;;;;;3057320;19;20010;-69
2022/07/20 02:07:15;;;;;;;6.43;3.58;;;24.10;60.80;;;;;;3056191;19;20022;-69
2022/07/20 02:08:25;;;;;;;6.05;3.95;;;24.20;60.50;;;;;;3060190;19;20014;-70
2022/07/20 02:09:26;;;;;;;8.98;3.60;;;24.30;60.50;;;;;;3059621;19;20501;-70
2022/07/20 02:10:30;;;;;;;9.10;3.70;;;24.20;60.80;;;;;;3059408;19;20494;-70
2022/07/20 02:11:31;;;;;;;6.68;3.55;;;24.20;60.70;;;;;;3059811;19;20021;-70
2022/07/20 02:12:35;;;;;;;5.15;3.70;;;24.20;61.00;;;;;;3058741;19;20010;-70
2022/07/20 02:13:37;;;;;;;5.95;3.33;;;24.20;61.10;;;;;;3058462;19;20024;-70
2022/07/20 02:14:41;;;;;;;5.10;3.28;;;24.20;61.60;;;;;;3059015;19;20006;-70
2022/07/20 02:17:01;;;;;;;6.53;3.58;;;24.00;61.40;;;;;;3057522;19;20044;-70
2022/07/20 02:18:05;;;;;;;6.53;3.67;;;23.90;61.50;;;;;;3058203;19;20017;-69
2022/07/20 02:19:09;;;;;;;7.95;3.60;;;24.10;62.10;;;;;;3059475;19;20010;-70
2022/07/20 02:20:11;;;;;;;6.05;3.67;;;23.90;62.00;;;;;;3058668;19;20014;-70
2022/07/20 02:21:15;;;;;;;5.97;3.17;;;23.90;62.20;;;;;;3058939;19;20010;-70
2022/07/20 02:22:16;;;;;;;8.82;3.50;;;24.00;62.20;;;;;;3058316;19;20026;-70
2022/07/20 02:23:23;;;;;;;6.57;3.60;;;24.00;62.10;;;;;;3058724;19;20433;-70
2022/07/20 02:24:24;;;;;;;6.75;3.40;;;23.70;62.50;;;;;;3058092;19;20376;-70
2022/07/20 02:25:28;;;;;;;5.30;3.50;;;23.70;63.30;;;;;;3057606;19;20360;-70
2022/07/20 02:26:29;;;;;;;3.75;3.40;;;23.60;63.00;;;;;;3058972;19;20014;-70
2022/07/20 02:27:33;;;;;;;9.68;3.58;;;23.70;62.90;;;;;;3058984;19;20023;-70
2022/07/20 02:28:34;;;;;;;5.15;3.55;;;23.70;62.70;;;;;;3058658;19;20021;-70
2022/07/20 02:29:38;;;;;;;6.22;3.63;;;23.70;63.50;;;;;;3058648;19;20031;-70
2022/07/20 02:30:40;;;;;;;8.30;3.67;;;23.50;63.70;;;;;;3058574;19;20011;-70
2022/07/20 02:31:44;;;;;;;6.07;3.50;;;23.70;63.90;;;;;;3057688;19;20024;-69
2022/07/20 02:32:45;;;;;;;5.05;3.65;;;23.40;63.60;;;;;;3058750;19;20019;-70
2022/07/20 02:33:49;;;;;;;7.80;3.95;;;23.50;64.10;;;;;;3059454;19;20081;-70
2022/07/20 02:34:51;;;;;;;5.88;3.53;;;23.50;63.70;;;;;;3058952;19;20073;-70
2022/07/20 02:35:55;;;;;;;6.32;3.60;;;23.40;63.70;;;;;;3058237;19;20082;-70
2022/07/20 02:36:56;;;;;;;10.65;3.45;;;23.40;64.00;;;;;;3058345;19;20017;-69
2022/07/20 02:38:00;;;;;;;5.88;3.30;;;23.40;64.20;;;;;;3060231;19;20073;-70
2022/07/20 02:39:07;;;;;;;7.35;3.70;;;23.60;65.00;;;;;;3058367;19;20337;-70
2022/07/20 02:40:09;;;;;;;6.18;3.90;;;23.50;64.10;;;;;;3057442;19;20010;-70
2022/07/20 02:41:14;;;;;;;6.38;3.67;;;23.30;63.90;;;;;;3058235;19;20073;-70
2022/07/20 02:42:15;;;;;;;6.45;3.47;;;23.40;64.50;;;;;;3058349;19;20041;-70
2022/07/20 02:43:19;;;;;;;7.53;3.40;;;23.30;64.70;;;;;;3059616;19;20042;-70
2022/07/20 02:44:20;;;;;;;8.68;3.58;;;23.30;64.60;;;;;;3057646;19;20018;-70
2022/07/20 02:45:24;;;;;;;10.13;3.97;;;23.20;64.80;;;;;;3058409;19;20018;-70
2022/07/20 02:46:28;;;;;;;6.90;4.05;;;23.30;64.80;;;;;;3057514;19;20014;-70
2022/07/20 02:47:29;;;;;;;8.32;3.70;;;23.10;64.70;;;;;;3058065;19;20014;-70
2022/07/20 02:48:34;;;;;;;7.75;4.00;;;23.30;64.80;;;;;;3059612;19;20442;-69
2022/07/20 02:49:35;;;;;;;6.57;3.80;;;23.20;64.70;;;;;;3058512;19;20026;-70
2022/07/20 02:50:41;;;;;;;5.00;3.83;;;23.10;64.60;;;;;;3058651;19;20010;-69
2022/07/20 02:51:43;;;;;;;10.40;3.80;;;23.30;65.40;;;;;;3057372;19;20394;-70
2022/07/20 02:52:47;;;;;;;6.70;3.60;;;23.10;64.50;;;;;;3058886;19;20010;-70
2022/07/20 02:53:48;;;;;;;5.70;3.40;;;23.20;64.40;;;;;;3058484;19;20018;-70
2022/07/20 02:54:55;;;;;;;7.25;3.67;;;23.00;64.50;;;;;;3057804;19;20014;-70
2022/07/20 02:55:56;;;;;;;5.03;3.63;;;23.20;64.70;;;;;;3057311;19;20516;-70
2022/07/20 02:57:03;;;;;;;6.20;3.75;;;23.10;64.50;;;;;;3058039;19;20018;-69
2022/07/20 02:58:04;;;;;;;5.28;3.47;;;23.00;64.50;;;;;;3059382;19;20030;-70
2022/07/20 02:59:08;;;;;;;5.93;3.88;;;23.10;64.60;;;;;;3058423;19;20013;-69
2022/07/20 03:00:11;;;;;;;6.60;3.40;;;23.20;64.50;;;;;;3056912;19;20333;-70
2022/07/20 03:01:17;;;;;;;5.47;3.50;;;23.10;64.30;;;;;;3057856;19;20006;-70
2022/07/20 03:02:18;;;;;;;4.65;3.22;;;23.10;64.50;;;;;;3059150;19;20045;-70
2022/07/20 03:03:22;;;;;;;6.80;3.78;;;23.10;64.40;;;;;;3058595;19;20597;-70
2022/07/20 03:04:23;;;;;;;6.15;3.65;;;23.00;64.30;;;;;;3059223;19;20018;-70
2022/07/20 03:05:27;;;;;;;8.65;3.47;;;23.10;64.20;;;;;;3058301;19;20365;-69
2022/07/20 03:06:29;;;;;;;7.47;3.58;;;23.00;64.50;;;;;;3055160;19;20026;-70
2022/07/20 03:07:33;;;;;;;7.68;3.80;;;23.20;64.80;;;;;;3059284;19;20034;-70
2022/07/20 03:08:34;;;;;;;7.10;3.65;;;23.00;65.20;;;;;;3057068;19;20046;-70
2022/07/20 03:09:38;;;;;;;7.07;4.05;;;23.00;65.50;;;;;;3058077;19;20014;-71
2022/07/20 03:10:42;;;;;;;6.65;4.15;;;23.20;65.60;;;;;;3057295;19;20010;-70
2022/07/20 03:11:46;;;;;;;7.80;4.30;;;22.90;65.30;;;;;;3057909;19;20011;-70
2022/07/20 03:12:47;;;;;;;6.45;3.90;;;22.90;65.00;;;;;;3058762;19;20015;-70
2022/07/20 03:13:51;;;;;;;13.15;4.20;;;23.10;65.10;;;;;;3058411;19;20014;-70
2022/07/20 03:14:52;;;;;;;7.55;3.90;;;22.80;65.00;;;;;;3057668;19;20017;-70
2022/07/20 03:15:56;;;;;;;13.63;4.10;;;22.80;65.00;;;;;;3057768;19;20011;-70
2022/07/20 03:16:57;;;;;;;7.35;3.70;;;23.00;65.20;;;;;;3058985;19;20498;-70
2022/07/20 03:18:01;;;;;;;5.45;3.80;;;22.90;65.30;;;;;;3058342;19;20007;-69
2022/07/20 03:19:02;;;;;;;6.32;3.70;;;22.80;65.60;;;;;;3061038;19;20027;-70
2022/07/20 03:20:07;;;;;;;6.95;3.55;;;22.90;65.60;;;;;;3060737;19;20078;-69
2022/07/20 03:21:11;;;;;;;4.40;3.45;;;23.10;65.60;;;;;;3060492;19;20010;-70
2022/07/20 03:22:15;;;;;;;6.00;3.92;;;22.90;65.70;;;;;;3062137;19;20029;-70
2022/07/20 03:23:19;;;;;;;;;;;22.90;65.20;;;;;;3061926;19;20007;-70
2022/07/20 03:24:20;;;;;;;6.75;3.63;;;22.70;66.10;;;;;;3060670;19;19921;-70
2022/07/20 03:25:25;;;;;;;6.70;3.30;;;22.80;65.30;;;;;;3062961;19;20026;-70
2022/07/20 03:26:32;;;;;;;7.85;3.70;;;22.70;65.20;;;;;;3060429;19;20023;-70
2022/07/20 03:27:33;;;;;;;6.60;3.65;;;22.70;65.40;;;;;;3061037;19;20017;-70
2022/07/20 03:28:37;;;;;;;6.88;3.40;;;22.90;65.50;;;;;;3062105;19;20019;-70
2022/07/20 03:29:38;;;;;;;6.20;3.53;;;22.50;65.40;;;;;;3061049;19;20010;-70
2022/07/20 03:30:42;;;;;;;5.50;3.42;;;22.80;65.70;;;;;;3060808;19;20031;-70
2022/07/20 03:31:43;;;;;;;7.18;3.45;;;22.90;65.90;;;;;;3060336;19;20010;-70
2022/07/20 03:32:47;;;;;;;8.48;3.58;;;22.60;66.40;;;;;;3061265;19;20031;-70
2022/07/20 03:33:51;;;;;;;8.82;3.55;;;22.60;66.40;;;;;;3061395;19;20044;-70
2022/07/20 03:34:52;;;;;;;7.72;3.85;;;22.70;66.40;;;;;;3060845;19;20128;-70
2022/07/20 03:35:56;;;;;;;7.18;3.50;;;22.70;66.40;;;;;;3061013;19;20019;-71
2022/07/20 03:37:00;;;;;;;10.50;3.65;;;22.80;66.50;;;;;;3060306;19;20025;-70
2022/07/20 03:38:01;;;;;;;5.28;3.38;;;22.70;66.70;;;;;;3061157;19;20026;-69
2022/07/20 03:39:05;;;;;;;7.88;3.50;;;22.70;66.70;;;;;;3061483;19;20081;-70
2022/07/20 03:40:08;;;;;;;9.23;3.70;;;22.60;66.20;;;;;;3059381;19;20014;-70
2022/07/20 03:41:12;;;;;;;9.35;3.85;;;22.60;66.30;;;;;;3059952;19;20483;-69
2022/07/20 03:42:17;;;;;;;7.53;3.40;;;22.70;66.40;;;;;;3062611;19;20015;-70
2022/07/20 03:43:21;;;;;;;6.72;3.78;;;22.60;66.80;;;;;;2837327;19;20491;-70
2022/07/20 03:44:23;;;;;;;7.70;3.42;;;22.70;66.80;;;;;;3061470;19;20507;-70
2022/07/20 03:45:26;;;;;;;6.35;3.72;;;22.60;66.50;;;;;;3033481;19;20043;-70
2022/07/20 03:46:28;;;;;;;4.90;3.72;;;22.60;66.70;;;;;;3059758;19;20013;-70
2022/07/20 03:47:33;;;;;;;5.75;3.60;;;22.50;66.70;;;;;;3060459;19;20003;-70
2022/07/20 03:48:36;;;;;;;5.30;3.72;;;22.50;66.80;;;;;;3061248;19;20019;-70
2022/07/20 03:49:40;;;;;;;9.88;3.97;;;22.50;66.90;;;;;;3060815;19;20024;-70
2022/07/20 03:50:41;;;;;;;4.88;3.58;;;22.50;66.80;;;;;;3062204;19;20022;-70
2022/07/20 03:51:45;;;;;;;5.95;3.90;;;22.40;66.70;;;;;;3059496;19;20039;-69
2022/07/20 03:52:46;;;;;;;10.40;3.90;;;22.40;66.70;;;;;;3061873;19;20014;-69
2022/07/20 03:53:50;;;;;;;6.75;3.78;;;22.40;66.90;;;;;;3059992;19;20581;-70
2022/07/20 03:54:52;;;;;;;6.95;4.18;;;22.30;66.70;;;;;;3060722;19;20003;-70
2022/07/20 03:55:55;;;;;;;7.55;4.40;;;22.60;66.70;;;;;;3061621;19;20010;-70
2022/07/20 03:56:57;;;;;;;8.68;4.10;;;22.40;66.50;;;;;;3059757;19;20014;-70
2022/07/20 03:58:03;;;;;;;10.75;4.20;;;22.50;66.30;;;;;;3061836;19;20378;-70
2022/07/20 03:59:04;;;;;;;5.80;3.65;;;22.50;66.60;;;;;;3062304;19;20021;-69
2022/07/20 04:00:10;;;;;;;5.70;3.92;;;22.40;66.40;;;;;;3061716;19;20018;-69
2022/07/20 04:01:14;;;;;;;8.45;3.78;;;22.50;66.30;;;;;;3060544;19;20094;-70
2022/07/20 04:02:19;;;;;;;5.82;3.10;;;21.80;66.90;;;;;;3060413;19;20010;-70
2022/07/20 04:03:20;;;;;;;5.95;3.67;;;22.50;67.00;;;;;;3062004;19;20018;-70
2022/07/20 04:04:24;;;;;;;6.63;4.28;;;22.50;67.20;;;;;;3060414;19;20429;-69
2022/07/20 04:05:28;;;;;;;7.60;4.10;;;22.50;67.30;;;;;;3060879;19;20021;-70
2022/07/20 04:06:29;;;;;;;8.02;3.72;;;22.60;67.10;;;;;;3059532;19;20027;-70
2022/07/20 04:07:33;;;;;;;6.95;3.90;;;22.40;67.60;;;;;;3061665;19;20014;-70
2022/07/20 04:08:34;;;;;;;6.03;3.70;;;22.20;67.20;;;;;;3061640;19;20029;-70
2022/07/20 04:09:47;;;;;;;8.35;3.83;;;22.50;67.70;;;;;;3060724;19;20011;-70
2022/07/20 04:10:49;;;;;;;7.05;3.53;;;22.30;67.80;;;;;;3061299;19;20026;-70
2022/07/20 04:11:52;;;;;;;4.25;3.40;;;22.30;67.60;;;;;;3059454;19;20014;-70
2022/07/20 04:12:54;;;;;;;6.93;3.65;;;22.30;67.80;;;;;;3061137;19;20014;-70
2022/07/20 04:14:00;;;;;;;5.43;3.53;;;22.40;67.90;;;;;;3058730;19;20019;-70
2022/07/20 04:15:02;;;;;;;7.45;3.72;;;22.50;68.20;;;;;;3061006;19;20546;-70
2022/07/20 04:16:06;;;;;;;8.98;4.05;;;22.40;67.90;;;;;;3061880;19;20364;-70
2022/07/20 04:17:08;;;;;;;8.00;3.70;;;22.30;67.60;;;;;;3059081;19;20010;-70
2022/07/20 04:18:12;;;;;;;6.43;3.50;;;22.30;68.00;;;;;;3061923;19;20015;-70
2022/07/20 04:19:13;;;;;;;7.18;3.78;;;22.40;68.30;;;;;;3060682;19;20019;-69
2022/07/20 04:20:17;;;;;;;11.65;3.78;;;22.50;68.40;;;;;;3060089;19;20012;-69
2022/07/20 04:21:18;;;;;;;6.53;3.75;;;22.30;68.10;;;;;;3061262;19;20014;-71
2022/07/20 04:22:22;;;;;;;4.82;3.50;;;22.40;68.20;;;;;;3060929;19;20015;-69
2022/07/20 04:23:23;;;;;;;8.65;4.10;;;22.30;68.50;;;;;;3060751;19;20042;-69
2022/07/20 04:24:28;;;;;;;8.63;3.90;;;22.30;69.10;;;;;;3058765;19;20365;-70
2022/07/20 04:25:29;;;;;;;6.75;3.92;;;22.20;69.00;;;;;;3061667;19;20018;-70
2022/07/20 04:26:33;;;;;;;5.97;3.70;;;22.40;68.90;;;;;;3060659;19;20033;-69
2022/07/20 04:27:37;;;;;;;5.15;3.70;;;22.20;69.30;;;;;;3061333;19;20018;-70
2022/07/20 04:28:38;;;;;;;5.78;3.97;;;22.10;69.60;;;;;;3060098;19;20015;-70
2022/07/20 04:29:44;;;;;;;8.32;4.28;;;22.30;70.10;;;;;;3059014;19;20006;-69
2022/07/20 04:30:46;;;;;;;6.43;3.58;;;22.20;69.70;;;;;;3060290;19;20011;-70
2022/07/20 04:31:49;;;;;;;6.93;3.60;;;22.30;70.00;;;;;;3059216;19;20055;-70
2022/07/20 04:32:53;;;;;;;6.53;3.80;;;22.40;69.80;;;;;;3060445;19;20356;-70
2022/07/20 04:33:55;;;;;;;6.40;3.92;;;22.40;69.70;;;;;;3058940;19;20789;-70
2022/07/20 04:34:59;;;;;;;7.40;4.03;;;22.40;69.40;;;;;;3060018;19;20384;-70
2022/07/20 04:36:00;;;;;;;5.63;3.75;;;22.40;69.40;;;;;;3060408;19;20015;-70
2022/07/20 04:37:04;;;;;;;7.95;4.32;;;22.40;69.60;;;;;;3059840;19;20007;-70
2022/07/20 04:38:05;;;;;;;6.18;3.95;;;22.40;69.60;;;;;;3059828;19;20369;-70
2022/07/20 04:39:09;;;;;;;7.38;3.90;;;22.40;69.60;;;;;;3060634;19;20069;-70
2022/07/20 04:40:11;;;;;;;9.85;4.00;;;22.50;69.40;;;;;;3059592;19;20387;-70
2022/07/20 04:41:15;;;;;;;5.60;3.85;;;22.30;69.10;;;;;;3060017;19;20495;-70
2022/07/20 04:42:17;;;;;;;8.90;4.07;;;22.40;69.10;;;;;;3060022;19;20018;-70
2022/07/20 04:43:21;;;;;;;7.20;3.92;;;22.50;69.30;;;;;;3060093;19;20018;-70
2022/07/20 04:44:22;;;;;;;5.43;3.97;;;22.50;69.00;;;;;;3058511;19;20014;-69
2022/07/20 04:45:28;;;;;;;6.03;3.92;;;22.40;69.10;;;;;;3060071;19;20023;-70
2022/07/20 04:46:30;;;;;;;5.82;3.67;;;22.20;69.60;;;;;;3060006;19;20025;-70
2022/07/20 04:47:33;;;;;;;9.55;3.97;;;22.60;69.80;;;;;;3061530;19;20078;-69
2022/07/20 04:48:35;;;;;;;5.70;3.97;;;22.30;69.60;;;;;;3061021;19;20022;-70
2022/07/20 04:49:39;;;;;;;6.18;3.80;;;22.30;69.90;;;;;;3059701;19;20003;-70
2022/07/20 04:50:40;;;;;;;9.93;3.90;;;22.50;69.90;;;;;;3059801;19;20494;-70
2022/07/20 04:51:44;;;;;;;6.63;3.80;;;22.30;69.60;;;;;;3060242;19;20007;-69
2022/07/20 04:52:46;;;;;;;5.85;3.83;;;22.30;69.40;;;;;;3060137;19;20039;-70
2022/07/20 04:53:49;;;;;;;5.13;3.72;;;22.50;69.60;;;;;;3061136;19;20482;-70
2022/07/20 04:54:53;;;;;;;9.13;4.18;;;22.60;69.60;;;;;;3059010;19;20186;-70
2022/07/20 04:55:55;;;;;;;6.13;3.55;;;22.60;69.60;;;;;;3061062;19;20015;-70
2022/07/20 04:57:01;;;;;;;6.75;4.00;;;22.40;69.70;;;;;;3059120;19;20027;-70
2022/07/20 04:58:02;;;;;;;16.02;3.80;;;22.40;69.70;;;;;;3059891;19;20405;-70
2022/07/20 04:59:06;;;;;;;10.20;3.90;;;22.50;69.50;;;;;;3060805;19;20006;-70
2022/07/20 05:00:09;;;;;;;8.23;4.03;;;22.40;69.70;;;;;;3057792;19;20010;-70
2022/07/20 05:01:16;;;;;;;6.72;3.83;;;22.50;69.60;;;;;;3058905;19;20075;-70
2022/07/20 05:02:24;;;;;;;6.88;3.90;;;22.30;69.40;;;;;;3060019;19;20015;-70
2022/07/20 05:03:26;;;;;;;7.47;3.90;;;22.40;69.40;;;;;;3060425;19;20018;-69
2022/07/20 05:04:30;;;;;;;8.05;4.10;;;22.50;69.30;;;;;;3057971;19;20030;-70
2022/07/20 05:05:31;;;;;;;6.22;3.85;;;22.60;69.60;;;;;;3060652;19;20026;-70
2022/07/20 05:06:35;;;;;;;8.13;4.18;;;22.60;69.60;;;;;;3059540;19;20040;-70
2022/07/20 05:07:36;;;;;;;5.40;3.50;;;22.50;69.60;;;;;;3060090;19;20014;-69
2022/07/20 05:08:41;;;;;;;8.43;3.60;;;22.40;70.10;;;;;;3059602;19;20006;-70
2022/07/20 05:09:42;;;;;;;5.75;4.00;;;22.70;69.70;;;;;;3058590;19;20015;-70
2022/07/20 05:10:46;;;;;;;5.32;3.97;;;22.60;69.80;;;;;;3060641;19;20034;-70
2022/07/20 05:11:50;;;;;;;6.63;3.92;;;22.70;69.70;;;;;;3058708;19;20040;-70
2022/07/20 05:12:51;;;;;;;7.22;3.70;;;22.60;69.80;;;;;;3059432;19;20086;-70
2022/07/20 05:13:55;;;;;;;7.20;3.90;;;22.70;69.90;;;;;;3059909;19;20026;-70
2022/07/20 05:14:56;;;;;;;6.22;3.78;;;22.80;70.00;;;;;;3059730;19;20400;-69
2022/07/20 05:16:02;;;;;;;8.13;4.10;;;22.80;70.00;;;;;;3059988;19;20025;-70
2022/07/20 05:17:09;;;;;;;6.35;3.97;;;22.70;70.00;;;;;;3059264;19;20531;-69
2022/07/20 05:18:10;;;;;;;5.88;3.67;;;22.70;70.20;;;;;;3059595;19;20488;-70
2022/07/20 05:19:14;;;;;;;6.70;4.07;;;22.80;70.50;;;;;;3057099;19;20018;-70
2022/07/20 05:20:15;;;;;;;7.53;4.30;;;22.60;70.50;;;;;;3059559;19;20014;-70
2022/07/20 05:21:19;;;;;;;5.70;3.70;;;22.70;70.80;;;;;;3060533;19;20010;-70
2022/07/20 05:22:20;;;;;;;9.27;3.97;;;22.80;70.90;;;;;;3060175;19;20508;-70
2022/07/20 05:23:24;;;;;;;6.50;3.85;;;22.70;71.20;;;;;;3059287;19;20007;-70
2022/07/20 05:24:28;;;;;;;6.45;4.13;;;22.80;71.40;;;;;;3059524;19;20010;-70
2022/07/20 05:25:30;;;;;;;7.82;4.18;;;22.70;71.30;;;;;;3060275;19;20081;-70
2022/07/20 05:26:34;;;;;;;9.10;4.22;;;22.70;71.50;;;;;;3059723;19;20031;-70
2022/07/20 05:27:35;;;;;;;8.88;3.80;;;22.70;71.50;;;;;;3057297;19;20031;-70
2022/07/20 05:28:41;;;;;;;8.98;3.90;;;22.80;71.70;;;;;;3059290;19;20031;-70
2022/07/20 05:29:43;;;;;;;6.78;3.58;;;22.60;71.80;;;;;;3060214;19;20038;-70
2022/07/20 05:30:47;;;;;;;6.25;4.03;;;22.70;72.00;;;;;;3060427;19;20389;-70
2022/07/20 05:31:48;;;;;;;7.32;3.92;;;22.70;71.90;;;;;;3058949;19;20007;-70
2022/07/20 05:32:55;;;;;;;9.50;4.07;;;22.70;72.00;;;;;;3059070;19;20010;-69